sensor_id;sensor_type;location;lat;lon;timestamp;temperature;humidity
30288;DHT22;17103;48.316;11.558;2023-09-19T00:00:34;21.60;53.00
30288;DHT22;17103;48.316;11.558;2023-09-19T00:03:01;21.80;53.20
30288;DHT22;17103;48.316;11.558;2023-09-19T00:05:27;21.70;52.90
30288;DHT22;17103;48.316;11.558;2023-09-19T00:07:57;22.00;53.20
30288;DHT22;17103;48.316;11.558;2023-09-19T00:10:28;22.00;53.30
30288;DHT22;17103;48.316;11.558;2023-09-19T00:12:57;21.70;52.80
30288;DHT22;17103;48.316;11.558;2023-09-19T00:15:25;21.90;53.00
30288;DHT22;17103;48.316;11.558;2023-09-19T00:17:54;21.60;52.90
30288;DHT22;17103;48.316;11.558;2023-09-19T00:20:20;21.60;52.90
30288;DHT22;17103;48.316;11.558;2023-09-19T00:22:49;21.70;53.10
30288;DHT22;17103;48.316;11.558;2023-09-19T00:25:17;21.60;53.00
30288;DHT22;17103;48.316;11.558;2023-09-19T00:27:43;21.60;53.10
30288;DHT22;17103;48.316;11.558;2023-09-19T00:30:12;21.60;53.10
30288;DHT22;17103;48.316;11.558;2023-09-19T00:32:48;21.70;53.20
30288;DHT22;17103;48.316;11.558;2023-09-19T00:35:15;21.70;53.10
30288;DHT22;17103;48.316;11.558;2023-09-19T00:37:47;21.70;53.00
30288;DHT22;17103;48.316;11.558;2023-09-19T00:40:14;22.00;53.20
30288;DHT22;17103;48.316;11.558;2023-09-19T00:42:41;21.70;52.90
30288;DHT22;17103;48.316;11.558;2023-09-19T00:45:11;21.80;52.80
30288;DHT22;17103;48.316;11.558;2023-09-19T00:47:57;21.70;52.70
30288;DHT22;17103;48.316;11.558;2023-09-19T00:50:30;21.70;52.60
30288;DHT22;17103;48.316;11.558;2023-09-19T00:52:58;21.80;52.70
30288;DHT22;17103;48.316;11.558;2023-09-19T00:55:25;21.70;52.60
30288;DHT22;17103;48.316;11.558;2023-09-19T00:57:52;21.70;52.60
30288;DHT22;17103;48.316;11.558;2023-09-19T01:00:18;21.70;52.60
30288;DHT22;17103;48.316;11.558;2023-09-19T01:02:47;21.70;52.60
30288;DHT22;17103;48.316;11.558;2023-09-19T01:05:14;21.70;52.50
30288;DHT22;17103;48.316;11.558;2023-09-19T01:07:43;21.80;52.60
30288;DHT22;17103;48.316;11.558;2023-09-19T01:10:17;21.60;52.40
30288;DHT22;17103;48.316;11.558;2023-09-19T01:16:11;21.50;52.40
30288;DHT22;17103;48.316;11.558;2023-09-19T01:21:57;21.40;52.30
30288;DHT22;17103;48.316;11.558;2023-09-19T01:27:48;21.30;52.40
30288;DHT22;17103;48.316;11.558;2023-09-19T01:30:21;21.20;52.20
30288;DHT22;17103;48.316;11.558;2023-09-19T01:32:53;21.20;52.40
30288;DHT22;17103;48.316;11.558;2023-09-19T01:35:19;21.50;52.60
30288;DHT22;17103;48.316;11.558;2023-09-19T01:37:45;21.50;52.70
30288;DHT22;17103;48.316;11.558;2023-09-19T01:40:17;21.00;52.50
30288;DHT22;17103;48.316;11.558;2023-09-19T01:43:08;21.60;53.10
30288;DHT22;17103;48.316;11.558;2023-09-19T01:46:03;21.00;52.90
30288;DHT22;17103;48.316;11.558;2023-09-19T01:51:07;20.90;53.30
30288;DHT22;17103;48.316;11.558;2023-09-19T01:54:00;20.90;53.40
30288;DHT22;17103;48.316;11.558;2023-09-19T01:57:26;21.30;54.10
30288;DHT22;17103;48.316;11.558;2023-09-19T01:59:34;21.20;54.10
30288;DHT22;17103;48.316;11.558;2023-09-19T02:02:01;20.90;54.10
30288;DHT22;17103;48.316;11.558;2023-09-19T02:04:27;20.80;54.10
30288;DHT22;17103;48.316;11.558;2023-09-19T02:06:53;20.90;54.20
30288;DHT22;17103;48.316;11.558;2023-09-19T02:09:19;20.90;54.10
30288;DHT22;17103;48.316;11.558;2023-09-19T02:11:45;20.90;54.10
30288;DHT22;17103;48.316;11.558;2023-09-19T02:14:15;20.90;54.30
30288;DHT22;17103;48.316;11.558;2023-09-19T02:16:41;20.90;54.50
30288;DHT22;17103;48.316;11.558;2023-09-19T02:19:07;21.40;54.70
30288;DHT22;17103;48.316;11.558;2023-09-19T02:21:33;20.90;54.10
30288;DHT22;17103;48.316;11.558;2023-09-19T02:24:08;21.40;54.70
30288;DHT22;17103;48.316;11.558;2023-09-19T02:26:38;21.00;54.40
30288;DHT22;17103;48.316;11.558;2023-09-19T02:29:04;21.00;54.40
30288;DHT22;17103;48.316;11.558;2023-09-19T02:31:33;21.00;54.20
30288;DHT22;17103;48.316;11.558;2023-09-19T02:34:05;21.00;54.30
30288;DHT22;17103;48.316;11.558;2023-09-19T02:36:36;21.40;54.70
30288;DHT22;17103;48.316;11.558;2023-09-19T02:39:02;20.70;54.10
30288;DHT22;17103;48.316;11.558;2023-09-19T02:41:28;20.90;54.20
30288;DHT22;17103;48.316;11.558;2023-09-19T02:43:54;21.00;54.30
30288;DHT22;17103;48.316;11.558;2023-09-19T02:46:20;21.20;54.40
30288;DHT22;17103;48.316;11.558;2023-09-19T02:48:46;20.90;54.10
30288;DHT22;17103;48.316;11.558;2023-09-19T02:51:12;20.90;54.20
30288;DHT22;17103;48.316;11.558;2023-09-19T02:53:40;20.90;54.20
30288;DHT22;17103;48.316;11.558;2023-09-19T02:56:08;20.80;54.10
30288;DHT22;17103;48.316;11.558;2023-09-19T02:58:39;20.80;54.20
30288;DHT22;17103;48.316;11.558;2023-09-19T03:01:08;21.20;54.50
30288;DHT22;17103;48.316;11.558;2023-09-19T03:03:51;20.70;54.10
30288;DHT22;17103;48.316;11.558;2023-09-19T03:06:41;20.80;54.20
30288;DHT22;17103;48.316;11.558;2023-09-19T03:09:12;20.80;54.20
30288;DHT22;17103;48.316;11.558;2023-09-19T03:11:46;20.90;54.20
30288;DHT22;17103;48.316;11.558;2023-09-19T03:14:12;20.90;54.20
30288;DHT22;17103;48.316;11.558;2023-09-19T03:17:11;21.10;54.10
30288;DHT22;17103;48.316;11.558;2023-09-19T03:19:39;21.20;54.20
30288;DHT22;17103;48.316;11.558;2023-09-19T03:22:05;21.30;54.10
30288;DHT22;17103;48.316;11.558;2023-09-19T03:24:32;21.00;53.50
30288;DHT22;17103;48.316;11.558;2023-09-19T03:26:59;21.00;53.80
30288;DHT22;17103;48.316;11.558;2023-09-19T03:29:28;21.00;53.80
30288;DHT22;17103;48.316;11.558;2023-09-19T03:31:56;21.00;53.80
30288;DHT22;17103;48.316;11.558;2023-09-19T03:37:31;20.90;53.60
30288;DHT22;17103;48.316;11.558;2023-09-19T03:40:21;20.90;53.80
30288;DHT22;17103;48.316;11.558;2023-09-19T03:43:11;21.80;54.40
30288;DHT22;17103;48.316;11.558;2023-09-19T03:46:04;20.90;53.70
30288;DHT22;17103;48.316;11.558;2023-09-19T03:48:33;21.90;54.50
30288;DHT22;17103;48.316;11.558;2023-09-19T03:51:08;20.80;53.50
30288;DHT22;17103;48.316;11.558;2023-09-19T03:53:35;21.20;53.90
30288;DHT22;17103;48.316;11.558;2023-09-19T03:56:03;20.60;53.40
30288;DHT22;17103;48.316;11.558;2023-09-19T03:58:43;20.80;53.60
30288;DHT22;17103;48.316;11.558;2023-09-19T04:01:31;20.60;53.40
30288;DHT22;17103;48.316;11.558;2023-09-19T04:04:02;20.70;53.60
30288;DHT22;17103;48.316;11.558;2023-09-19T04:06:36;20.70;53.60
30288;DHT22;17103;48.316;11.558;2023-09-19T04:09:08;21.00;53.90
30288;DHT22;17103;48.316;11.558;2023-09-19T04:12:07;21.10;54.10
30288;DHT22;17103;48.316;11.558;2023-09-19T04:14:45;20.50;53.80
30288;DHT22;17103;48.316;11.558;2023-09-19T04:17:29;20.40;53.90
30288;DHT22;17103;48.316;11.558;2023-09-19T04:20:02;20.70;54.20
30288;DHT22;17103;48.316;11.558;2023-09-19T04:32:47;20.00;54.00
30288;DHT22;17103;48.316;11.558;2023-09-19T04:35:44;20.20;54.30
30288;DHT22;17103;48.316;11.558;2023-09-19T04:41:37;20.10;54.40
30288;DHT22;17103;48.316;11.558;2023-09-19T04:44:13;20.30;54.50
30288;DHT22;17103;48.316;11.558;2023-09-19T04:50:11;20.90;55.10
30288;DHT22;17103;48.316;11.558;2023-09-19T04:53:09;20.40;54.70
30288;DHT22;17103;48.316;11.558;2023-09-19T04:55:56;20.10;54.50
30288;DHT22;17103;48.316;11.558;2023-09-19T04:58:41;20.20;54.60
30288;DHT22;17103;48.316;11.558;2023-09-19T05:01:36;20.40;54.70
30288;DHT22;17103;48.316;11.558;2023-09-19T05:04:07;20.40;54.70
30288;DHT22;17103;48.316;11.558;2023-09-19T05:06:45;20.40;54.70
30288;DHT22;17103;48.316;11.558;2023-09-19T05:09:36;20.10;54.60
30288;DHT22;17103;48.316;11.558;2023-09-19T05:12:12;20.40;54.90
30288;DHT22;17103;48.316;11.558;2023-09-19T05:14:53;20.40;55.00
30288;DHT22;17103;48.316;11.558;2023-09-19T05:17:22;20.30;55.20
30288;DHT22;17103;48.316;11.558;2023-09-19T05:20:01;19.90;55.00
30288;DHT22;17103;48.316;11.558;2023-09-19T05:22:40;20.30;55.70
30288;DHT22;17103;48.316;11.558;2023-09-19T05:25:10;20.30;55.80
30288;DHT22;17103;48.316;11.558;2023-09-19T05:27:38;20.20;56.00
30288;DHT22;17103;48.316;11.558;2023-09-19T05:30:05;20.30;56.10
30288;DHT22;17103;48.316;11.558;2023-09-19T05:32:49;20.20;56.70
30288;DHT22;17103;48.316;11.558;2023-09-19T05:35:18;20.40;56.60
30288;DHT22;17103;48.316;11.558;2023-09-19T05:37:53;20.20;56.40
30288;DHT22;17103;48.316;11.558;2023-09-19T05:40:22;20.20;56.60
30288;DHT22;17103;48.316;11.558;2023-09-19T05:42:48;20.70;57.00
30288;DHT22;17103;48.316;11.558;2023-09-19T05:45:23;20.10;56.60
30288;DHT22;17103;48.316;11.558;2023-09-19T05:47:53;20.50;56.90
30288;DHT22;17103;48.316;11.558;2023-09-19T05:50:28;20.60;57.20
30288;DHT22;17103;48.316;11.558;2023-09-19T05:52:55;20.10;56.80
30288;DHT22;17103;48.316;11.558;2023-09-19T05:55:21;20.10;56.70
30288;DHT22;17103;48.316;11.558;2023-09-19T05:57:51;20.10;56.80
30288;DHT22;17103;48.316;11.558;2023-09-19T06:00:22;20.10;56.70
30288;DHT22;17103;48.316;11.558;2023-09-19T06:03:03;20.10;56.70
30288;DHT22;17103;48.316;11.558;2023-09-19T06:05:29;20.50;57.00
30288;DHT22;17103;48.316;11.558;2023-09-19T06:07:57;20.20;56.50
30288;DHT22;17103;48.316;11.558;2023-09-19T06:10:28;20.10;56.50
30288;DHT22;17103;48.316;11.558;2023-09-19T06:12:56;20.10;56.40
30288;DHT22;17103;48.316;11.558;2023-09-19T06:15:28;20.80;57.00
30288;DHT22;17103;48.316;11.558;2023-09-19T06:17:56;20.70;57.00
30288;DHT22;17103;48.316;11.558;2023-09-19T06:20:23;20.20;56.60
30288;DHT22;17103;48.316;11.558;2023-09-19T06:22:51;20.50;56.70
30288;DHT22;17103;48.316;11.558;2023-09-19T06:25:17;20.10;56.30
30288;DHT22;17103;48.316;11.558;2023-09-19T06:27:48;20.20;56.40
30288;DHT22;17103;48.316;11.558;2023-09-19T06:30:15;20.60;56.70
30288;DHT22;17103;48.316;11.558;2023-09-19T06:32:41;20.20;56.30
30288;DHT22;17103;48.316;11.558;2023-09-19T06:35:10;20.20;56.10
30288;DHT22;17103;48.316;11.558;2023-09-19T06:37:37;20.30;56.30
30288;DHT22;17103;48.316;11.558;2023-09-19T06:40:08;20.30;56.20
30288;DHT22;17103;48.316;11.558;2023-09-19T06:42:44;20.30;56.20
30288;DHT22;17103;48.316;11.558;2023-09-19T06:45:11;20.30;56.10
30288;DHT22;17103;48.316;11.558;2023-09-19T06:47:40;20.30;55.90
30288;DHT22;17103;48.316;11.558;2023-09-19T06:50:06;20.30;55.60
30288;DHT22;17103;48.316;11.558;2023-09-19T06:52:34;20.30;55.60
30288;DHT22;17103;48.316;11.558;2023-09-19T06:55:00;20.30;55.70
30288;DHT22;17103;48.316;11.558;2023-09-19T06:57:28;20.40;55.90
30288;DHT22;17103;48.316;11.558;2023-09-19T06:59:56;20.20;55.80
30288;DHT22;17103;48.316;11.558;2023-09-19T07:02:21;20.20;55.90
30288;DHT22;17103;48.316;11.558;2023-09-19T07:04:47;20.30;56.10
30288;DHT22;17103;48.316;11.558;2023-09-19T07:07:13;20.30;56.20
30288;DHT22;17103;48.316;11.558;2023-09-19T07:09:39;20.30;56.30
30288;DHT22;17103;48.316;11.558;2023-09-19T07:12:05;20.40;56.30
30288;DHT22;17103;48.316;11.558;2023-09-19T07:14:31;20.40;56.10
30288;DHT22;17103;48.316;11.558;2023-09-19T07:16:57;20.40;56.00
30288;DHT22;17103;48.316;11.558;2023-09-19T07:19:25;20.40;56.20
30288;DHT22;17103;48.316;11.558;2023-09-19T07:21:53;20.40;55.60
30288;DHT22;17103;48.316;11.558;2023-09-19T07:24:19;20.50;55.70
30288;DHT22;17103;48.316;11.558;2023-09-19T07:26:46;20.40;55.60
30288;DHT22;17103;48.316;11.558;2023-09-19T07:29:12;20.50;55.80
30288;DHT22;17103;48.316;11.558;2023-09-19T07:31:38;20.50;55.60
30288;DHT22;17103;48.316;11.558;2023-09-19T07:34:03;20.50;55.60
30288;DHT22;17103;48.316;11.558;2023-09-19T07:36:29;20.50;55.60
30288;DHT22;17103;48.316;11.558;2023-09-19T07:38:55;20.50;55.60
30288;DHT22;17103;48.316;11.558;2023-09-19T07:41:26;20.60;55.60
30288;DHT22;17103;48.316;11.558;2023-09-19T07:43:53;20.60;55.60
30288;DHT22;17103;48.316;11.558;2023-09-19T07:46:19;20.70;55.70
30288;DHT22;17103;48.316;11.558;2023-09-19T07:48:46;20.80;55.90
30288;DHT22;17103;48.316;11.558;2023-09-19T07:51:15;20.70;55.40
30288;DHT22;17103;48.316;11.558;2023-09-19T07:53:42;20.70;55.60
30288;DHT22;17103;48.316;11.558;2023-09-19T07:56:09;20.80;55.60
30288;DHT22;17103;48.316;11.558;2023-09-19T07:58:35;20.80;55.20
30288;DHT22;17103;48.316;11.558;2023-09-19T08:01:05;21.00;55.30
30288;DHT22;17103;48.316;11.558;2023-09-19T08:03:32;21.00;55.30
30288;DHT22;17103;48.316;11.558;2023-09-19T08:05:58;21.10;55.20
30288;DHT22;17103;48.316;11.558;2023-09-19T08:08:23;21.00;55.00
30288;DHT22;17103;48.316;11.558;2023-09-19T08:10:56;21.00;54.90
30288;DHT22;17103;48.316;11.558;2023-09-19T08:13:23;21.00;54.90
30288;DHT22;17103;48.316;11.558;2023-09-19T08:15:49;21.00;54.90
30288;DHT22;17103;48.316;11.558;2023-09-19T08:18:16;21.00;55.20
30288;DHT22;17103;48.316;11.558;2023-09-19T08:20:42;21.10;55.40
30288;DHT22;17103;48.316;11.558;2023-09-19T08:23:08;21.10;55.10
30288;DHT22;17103;48.316;11.558;2023-09-19T08:25:34;21.20;55.10
30288;DHT22;17103;48.316;11.558;2023-09-19T08:28:00;21.20;55.10
30288;DHT22;17103;48.316;11.558;2023-09-19T08:30:29;21.30;54.60
30288;DHT22;17103;48.316;11.558;2023-09-19T08:32:58;21.40;54.10
30288;DHT22;17103;48.316;11.558;2023-09-19T08:35:24;21.30;53.80
30288;DHT22;17103;48.316;11.558;2023-09-19T08:37:49;21.50;53.90
30288;DHT22;17103;48.316;11.558;2023-09-19T08:40:17;21.40;53.80
30288;DHT22;17103;48.316;11.558;2023-09-19T08:42:54;21.60;54.00
30288;DHT22;17103;48.316;11.558;2023-09-19T08:45:21;21.70;54.00
30288;DHT22;17103;48.316;11.558;2023-09-19T08:48:12;22.00;53.40
30288;DHT22;17103;48.316;11.558;2023-09-19T08:50:52;21.80;52.60
30288;DHT22;17103;48.316;11.558;2023-09-19T08:53:27;21.80;52.60
30288;DHT22;17103;48.316;11.558;2023-09-19T08:55:56;21.80;52.30
30288;DHT22;17103;48.316;11.558;2023-09-19T08:58:26;21.80;52.40
30288;DHT22;17103;48.316;11.558;2023-09-19T09:00:55;21.80;52.60
30288;DHT22;17103;48.316;11.558;2023-09-19T09:03:22;21.90;52.40
30288;DHT22;17103;48.316;11.558;2023-09-19T09:05:50;21.90;52.00
30288;DHT22;17103;48.316;11.558;2023-09-19T09:08:17;21.90;52.10
30288;DHT22;17103;48.316;11.558;2023-09-19T09:10:45;21.80;52.70
30288;DHT22;17103;48.316;11.558;2023-09-19T09:13:12;21.90;52.30
30288;DHT22;17103;48.316;11.558;2023-09-19T09:15:41;22.00;52.40
30288;DHT22;17103;48.316;11.558;2023-09-19T09:18:06;22.10;52.90
30288;DHT22;17103;48.316;11.558;2023-09-19T09:20:35;22.40;52.20
30288;DHT22;17103;48.316;11.558;2023-09-19T09:23:01;22.30;51.70
30288;DHT22;17103;48.316;11.558;2023-09-19T09:25:52;22.20;50.90
30288;DHT22;17103;48.316;11.558;2023-09-19T09:28:27;22.30;50.40
30288;DHT22;17103;48.316;11.558;2023-09-19T09:30:55;22.30;50.80
30288;DHT22;17103;48.316;11.558;2023-09-19T09:33:21;22.40;50.60
30288;DHT22;17103;48.316;11.558;2023-09-19T09:35:50;22.40;50.70
30288;DHT22;17103;48.316;11.558;2023-09-19T09:38:18;22.50;50.50
30288;DHT22;17103;48.316;11.558;2023-09-19T09:40:51;22.50;50.20
30288;DHT22;17103;48.316;11.558;2023-09-19T09:43:36;22.60;49.90
30288;DHT22;17103;48.316;11.558;2023-09-19T09:46:14;22.60;50.20
30288;DHT22;17103;48.316;11.558;2023-09-19T09:48:56;22.60;49.90
30288;DHT22;17103;48.316;11.558;2023-09-19T09:51:58;22.70;50.00
30288;DHT22;17103;48.316;11.558;2023-09-19T09:54:28;22.80;49.60
30288;DHT22;17103;48.316;11.558;2023-09-19T09:57:07;22.80;49.00
30288;DHT22;17103;48.316;11.558;2023-09-19T09:59:51;22.70;48.50
30288;DHT22;17103;48.316;11.558;2023-09-19T10:02:35;22.70;48.60
30288;DHT22;17103;48.316;11.558;2023-09-19T10:05:21;22.70;48.90
30288;DHT22;17103;48.316;11.558;2023-09-19T10:07:52;22.90;49.20
30288;DHT22;17103;48.316;11.558;2023-09-19T10:10:44;22.80;49.40
30288;DHT22;17103;48.316;11.558;2023-09-19T10:13:19;22.80;48.80
30288;DHT22;17103;48.316;11.558;2023-09-19T10:15:51;22.80;48.80
30288;DHT22;17103;48.316;11.558;2023-09-19T10:18:20;22.80;48.70
30288;DHT22;17103;48.316;11.558;2023-09-19T10:20:47;22.80;48.50
30288;DHT22;17103;48.316;11.558;2023-09-19T10:23:17;22.80;47.90
30288;DHT22;17103;48.316;11.558;2023-09-19T10:25:48;22.80;47.90
30288;DHT22;17103;48.316;11.558;2023-09-19T10:28:15;23.00;48.40
30288;DHT22;17103;48.316;11.558;2023-09-19T10:30:47;23.00;48.60
30288;DHT22;17103;48.316;11.558;2023-09-19T10:33:15;23.10;47.80
30288;DHT22;17103;48.316;11.558;2023-09-19T10:35:46;23.30;47.60
30288;DHT22;17103;48.316;11.558;2023-09-19T10:38:14;23.40;47.70
30288;DHT22;17103;48.316;11.558;2023-09-19T10:40:40;23.50;48.20
30288;DHT22;17103;48.316;11.558;2023-09-19T10:43:12;23.80;47.30
30288;DHT22;17103;48.316;11.558;2023-09-19T10:45:39;23.40;47.30
30288;DHT22;17103;48.316;11.558;2023-09-19T10:48:05;23.60;46.40
30288;DHT22;17103;48.316;11.558;2023-09-19T10:51:02;23.60;47.30
30288;DHT22;17103;48.316;11.558;2023-09-19T10:53:46;23.60;47.10
30288;DHT22;17103;48.316;11.558;2023-09-19T10:56:29;23.60;46.80
30288;DHT22;17103;48.316;11.558;2023-09-19T10:59:12;23.50;46.50
30288;DHT22;17103;48.316;11.558;2023-09-19T11:01:55;23.60;46.50
30288;DHT22;17103;48.316;11.558;2023-09-19T11:04:29;23.50;46.30
30288;DHT22;17103;48.316;11.558;2023-09-19T11:09:50;23.40;46.50
30288;DHT22;17103;48.316;11.558;2023-09-19T11:15:02;23.40;48.20
30288;DHT22;17103;48.316;11.558;2023-09-19T11:17:43;23.40;48.20
30288;DHT22;17103;48.316;11.558;2023-09-19T11:20:19;23.50;48.20
30288;DHT22;17103;48.316;11.558;2023-09-19T11:30:35;23.60;48.70
30288;DHT22;17103;48.316;11.558;2023-09-19T11:33:19;23.70;48.90
30288;DHT22;17103;48.316;11.558;2023-09-19T11:43:52;23.80;49.00
30288;DHT22;17103;48.316;11.558;2023-09-19T11:46:20;24.30;49.70
30288;DHT22;17103;48.316;11.558;2023-09-19T11:48:51;23.80;47.50
30288;DHT22;17103;48.316;11.558;2023-09-19T11:51:24;23.80;46.90
30288;DHT22;17103;48.316;11.558;2023-09-19T11:53:54;23.80;47.40
30288;DHT22;17103;48.316;11.558;2023-09-19T11:56:24;23.90;47.40
30288;DHT22;17103;48.316;11.558;2023-09-19T11:58:52;23.80;45.70
30288;DHT22;17103;48.316;11.558;2023-09-19T12:01:24;24.20;45.40
30288;DHT22;17103;48.316;11.558;2023-09-19T12:03:54;23.90;45.20
30288;DHT22;17103;48.316;11.558;2023-09-19T12:06:20;23.80;45.30
30288;DHT22;17103;48.316;11.558;2023-09-19T12:08:47;24.30;45.90
30288;DHT22;17103;48.316;11.558;2023-09-19T12:11:15;23.90;45.60
30288;DHT22;17103;48.316;11.558;2023-09-19T12:13:45;23.90;45.50
30288;DHT22;17103;48.316;11.558;2023-09-19T12:16:16;23.90;45.20
30288;DHT22;17103;48.316;11.558;2023-09-19T12:18:42;23.90;45.50
30288;DHT22;17103;48.316;11.558;2023-09-19T12:21:29;23.90;45.50
30288;DHT22;17103;48.316;11.558;2023-09-19T12:24:04;23.90;45.70
30288;DHT22;17103;48.316;11.558;2023-09-19T12:26:46;24.00;45.50
30288;DHT22;17103;48.316;11.558;2023-09-19T12:29:21;24.00;45.20
30288;DHT22;17103;48.316;11.558;2023-09-19T12:31:54;24.00;44.70
30288;DHT22;17103;48.316;11.558;2023-09-19T12:34:26;24.50;45.40
30288;DHT22;17103;48.316;11.558;2023-09-19T12:37:12;24.10;44.40
30288;DHT22;17103;48.316;11.558;2023-09-19T12:39:45;24.10;44.10
30288;DHT22;17103;48.316;11.558;2023-09-19T12:42:23;24.00;43.50
30288;DHT22;17103;48.316;11.558;2023-09-19T12:44:51;24.00;44.20
30288;DHT22;17103;48.316;11.558;2023-09-19T12:47:20;23.90;45.80
30288;DHT22;17103;48.316;11.558;2023-09-19T12:50:14;23.90;47.10
30288;DHT22;17103;48.316;11.558;2023-09-19T12:52:55;23.90;47.50
30288;DHT22;17103;48.316;11.558;2023-09-19T12:55:29;24.20;47.60
30288;DHT22;17103;48.316;11.558;2023-09-19T12:58:00;24.20;47.70
30288;DHT22;17103;48.316;11.558;2023-09-19T13:00:36;23.90;47.30
30288;DHT22;17103;48.316;11.558;2023-09-19T13:05:56;24.10;47.30
30288;DHT22;17103;48.316;11.558;2023-09-19T13:08:35;24.10;47.00
30288;DHT22;17103;48.316;11.558;2023-09-19T13:11:12;24.30;46.90
30288;DHT22;17103;48.316;11.558;2023-09-19T13:13:51;24.40;46.90
30288;DHT22;17103;48.316;11.558;2023-09-19T13:16:33;24.50;46.10
30288;DHT22;17103;48.316;11.558;2023-09-19T13:18:59;24.50;45.90
30288;DHT22;17103;48.316;11.558;2023-09-19T13:21:32;24.40;45.40
30288;DHT22;17103;48.316;11.558;2023-09-19T13:24:32;24.60;45.80
30288;DHT22;17103;48.316;11.558;2023-09-19T13:27:00;24.70;45.20
30288;DHT22;17103;48.316;11.558;2023-09-19T13:29:26;25.00;45.80
30288;DHT22;17103;48.316;11.558;2023-09-19T13:31:52;24.90;46.00
30288;DHT22;17103;48.316;11.558;2023-09-19T13:34:22;25.00;45.80
30288;DHT22;17103;48.316;11.558;2023-09-19T13:36:48;25.20;45.80
30288;DHT22;17103;48.316;11.558;2023-09-19T13:39:17;25.30;45.40
30288;DHT22;17103;48.316;11.558;2023-09-19T13:41:46;25.70;45.00
30288;DHT22;17103;48.316;11.558;2023-09-19T13:44:12;25.60;45.00
30288;DHT22;17103;48.316;11.558;2023-09-19T13:46:39;25.70;44.90
30288;DHT22;17103;48.316;11.558;2023-09-19T13:49:06;25.90;44.30
30288;DHT22;17103;48.316;11.558;2023-09-19T13:51:32;26.20;44.20
30288;DHT22;17103;48.316;11.558;2023-09-19T13:53:58;26.10;43.80
30288;DHT22;17103;48.316;11.558;2023-09-19T13:56:26;26.30;43.50
30288;DHT22;17103;48.316;11.558;2023-09-19T13:58:56;26.40;42.60
30288;DHT22;17103;48.316;11.558;2023-09-19T14:01:22;26.30;42.90
30288;DHT22;17103;48.316;11.558;2023-09-19T14:03:47;26.70;42.40
30288;DHT22;17103;48.316;11.558;2023-09-19T14:06:16;26.60;42.70
30288;DHT22;17103;48.316;11.558;2023-09-19T14:08:43;26.90;42.20
30288;DHT22;17103;48.316;11.558;2023-09-19T14:11:09;26.90;41.20
30288;DHT22;17103;48.316;11.558;2023-09-19T14:13:35;26.90;42.60
30288;DHT22;17103;48.316;11.558;2023-09-19T14:16:05;26.50;41.50
30288;DHT22;17103;48.316;11.558;2023-09-19T14:18:31;26.50;40.70
30288;DHT22;17103;48.316;11.558;2023-09-19T14:21:01;26.40;40.30
30288;DHT22;17103;48.316;11.558;2023-09-19T14:23:28;26.30;40.60
30288;DHT22;17103;48.316;11.558;2023-09-19T14:25:54;26.20;41.00
30288;DHT22;17103;48.316;11.558;2023-09-19T14:28:19;26.10;40.90
30288;DHT22;17103;48.316;11.558;2023-09-19T14:30:45;26.40;41.30
30288;DHT22;17103;48.316;11.558;2023-09-19T14:33:11;26.00;40.60
30288;DHT22;17103;48.316;11.558;2023-09-19T14:35:37;25.90;40.90
30288;DHT22;17103;48.316;11.558;2023-09-19T14:38:06;26.10;41.80
30288;DHT22;17103;48.316;11.558;2023-09-19T14:40:31;25.90;41.90
30288;DHT22;17103;48.316;11.558;2023-09-19T14:42:57;25.90;42.00
30288;DHT22;17103;48.316;11.558;2023-09-19T14:45:23;26.00;42.10
30288;DHT22;17103;48.316;11.558;2023-09-19T14:47:51;26.00;42.20
30288;DHT22;17103;48.316;11.558;2023-09-19T14:50:20;26.10;41.60
30288;DHT22;17103;48.316;11.558;2023-09-19T14:52:45;26.10;41.70
30288;DHT22;17103;48.316;11.558;2023-09-19T14:55:11;26.10;41.80
30288;DHT22;17103;48.316;11.558;2023-09-19T14:57:40;26.20;42.00
30288;DHT22;17103;48.316;11.558;2023-09-19T15:00:06;26.20;41.30
30288;DHT22;17103;48.316;11.558;2023-09-19T15:02:38;26.30;41.60
30288;DHT22;17103;48.316;11.558;2023-09-19T15:05:06;26.40;41.20
30288;DHT22;17103;48.316;11.558;2023-09-19T15:07:35;26.40;41.30
30288;DHT22;17103;48.316;11.558;2023-09-19T15:10:04;26.60;41.00
30288;DHT22;17103;48.316;11.558;2023-09-19T15:12:32;26.60;40.80
30288;DHT22;17103;48.316;11.558;2023-09-19T15:14:59;27.00;40.80
30288;DHT22;17103;48.316;11.558;2023-09-19T15:17:25;26.80;41.10
30288;DHT22;17103;48.316;11.558;2023-09-19T15:19:50;26.90;40.30
30288;DHT22;17103;48.316;11.558;2023-09-19T15:22:19;27.20;40.70
30288;DHT22;17103;48.316;11.558;2023-09-19T15:24:45;27.00;41.40
30288;DHT22;17103;48.316;11.558;2023-09-19T15:27:11;27.20;41.60
30288;DHT22;17103;48.316;11.558;2023-09-19T15:29:37;27.60;42.00
30288;DHT22;17103;48.316;11.558;2023-09-19T15:32:04;27.40;40.40
30288;DHT22;17103;48.316;11.558;2023-09-19T15:34:30;27.50;41.00
30288;DHT22;17103;48.316;11.558;2023-09-19T15:36:56;27.60;40.50
30288;DHT22;17103;48.316;11.558;2023-09-19T15:39:21;28.00;39.40
30288;DHT22;17103;48.316;11.558;2023-09-19T15:41:50;27.80;39.60
30288;DHT22;17103;48.316;11.558;2023-09-19T15:44:19;27.80;39.30
30288;DHT22;17103;48.316;11.558;2023-09-19T15:46:47;27.90;39.70
30288;DHT22;17103;48.316;11.558;2023-09-19T15:49:14;28.00;39.10
30288;DHT22;17103;48.316;11.558;2023-09-19T15:51:41;27.80;38.40
30288;DHT22;17103;48.316;11.558;2023-09-19T15:54:13;27.80;38.10
30288;DHT22;17103;48.316;11.558;2023-09-19T15:56:42;28.00;38.60
30288;DHT22;17103;48.316;11.558;2023-09-19T15:59:09;28.10;39.10
30288;DHT22;17103;48.316;11.558;2023-09-19T16:01:38;28.10;38.90
30288;DHT22;17103;48.316;11.558;2023-09-19T16:04:04;28.10;38.50
30288;DHT22;17103;48.316;11.558;2023-09-19T16:06:31;27.80;38.00
30288;DHT22;17103;48.316;11.558;2023-09-19T16:08:59;27.80;39.40
30288;DHT22;17103;48.316;11.558;2023-09-19T16:11:35;27.60;38.80
30288;DHT22;17103;48.316;11.558;2023-09-19T16:14:05;28.20;39.20
30288;DHT22;17103;48.316;11.558;2023-09-19T16:16:32;28.30;38.90
30288;DHT22;17103;48.316;11.558;2023-09-19T16:19:02;28.30;39.40
30288;DHT22;17103;48.316;11.558;2023-09-19T16:21:32;27.90;38.40
30288;DHT22;17103;48.316;11.558;2023-09-19T16:23:59;28.40;38.80
30288;DHT22;17103;48.316;11.558;2023-09-19T16:26:29;28.20;38.30
30288;DHT22;17103;48.316;11.558;2023-09-19T16:28:56;28.40;38.70
30288;DHT22;17103;48.316;11.558;2023-09-19T16:31:31;27.90;39.00
30288;DHT22;17103;48.316;11.558;2023-09-19T16:34:02;27.80;39.40
30288;DHT22;17103;48.316;11.558;2023-09-19T16:36:28;27.90;39.80